Strona główna
METAR-TAF:

METAR-TAF

Lotnisko :

Port lotniczy Rabat-Sala

Rabat, Maroko

Szerokość geograficzna: 34-03N, Długość geograficzna: 006-46W, wysokość: 84 m

Aktualna obserwacja pogody

Raport powstał 29 minut temu, godzina 12:00 UTC
Wiatr 7 kt od zachodnio-północny zachód, zmienny między zachód i północno-północny zachód
Temperatura 20°C
Wilgotność 49%
Ciśnienie 1011 hPa
Widzialność: 6000 m
Mało chmury na wysokości 2000 ft

METAR: GMME 301200Z 30007KT 260V340 6000 FEW020 20/09 Q1011 NOSIG

czas: 13:29 (12:29 UTC)

Prognoza

Raport powstał 1 godzina i 29 minut temu, godzina 11:00 UTC
Prognoza ważna od 30 godzina 12 UTC do 31 godzina 18 UTC
Wiatr 10 kt od południe
Widzialność: 8000 m
Przejściowo
od 30 godzina 18 UTC do 30 godzina 23 UTC
Wiatr 10 kt od zachodnio-południowy zachód
Rozproszone chmury na wysokości 1500 ft

TAF: GMME 301100Z 3012/3118 18010KT 8000 NSC TEMPO 3018/3023 24010KT SCT015

Obserwacja i prognoza pogody dla ponad 4000 lotnisk (raport METAR i TAF).

Dostępne stacje oznaczono żółtymi i czerwonymi punktami na mapie.

Najedź kursorem aby zobaczyć nazwę stacji.

Kliknij aby zobaczyć obserwacje i prognozy pogody.

Aby zmienić mapę: kliknij na zielony przycisk z czarnym krzyżykiem, aby powiększyć; na zielony przycisk z myślnikiem, aby pomniejszyć; na zielone strzałki, aby przejść do map sąsiednich.


METAR-TAF: